sensor_id;sensor_type;location;lat;lon;timestamp;temperature;humidity
2022;DHT22;1015;49.756;6.994;2022-12-07T00:01:27;0.40;99.90
2022;DHT22;1015;49.756;6.994;2022-12-07T00:03:57;0.50;99.90
2022;DHT22;1015;49.756;6.994;2022-12-07T00:06:30;0.50;99.90
2022;DHT22;1015;49.756;6.994;2022-12-07T00:08:58;0.50;99.90
2022;DHT22;1015;49.756;6.994;2022-12-07T00:11:25;0.40;99.90
2022;DHT22;1015;49.756;6.994;2022-12-07T00:13:53;0.30;99.90
2022;DHT22;1015;49.756;6.994;2022-12-07T00:16:22;0.30;99.90
2022;DHT22;1015;49.756;6.994;2022-12-07T00:18:49;0.30;99.90
2022;DHT22;1015;49.756;6.994;2022-12-07T00:21:20;0.40;99.90
2022;DHT22;1015;49.756;6.994;2022-12-07T00:23:48;0.40;99.90
2022;DHT22;1015;49.756;6.994;2022-12-07T00:26:18;0.50;99.90
2022;DHT22;1015;49.756;6.994;2022-12-07T00:28:46;0.50;99.90
2022;DHT22;1015;49.756;6.994;2022-12-07T00:31:14;0.50;99.90
2022;DHT22;1015;49.756;6.994;2022-12-07T00:33:41;0.50;99.90
2022;DHT22;1015;49.756;6.994;2022-12-07T00:36:11;0.60;99.90
2022;DHT22;1015;49.756;6.994;2022-12-07T00:38:39;0.50;99.90
2022;DHT22;1015;49.756;6.994;2022-12-07T00:41:09;0.60;99.90
2022;DHT22;1015;49.756;6.994;2022-12-07T00:43:36;0.60;99.90
2022;DHT22;1015;49.756;6.994;2022-12-07T00:46:04;0.60;99.90
2022;DHT22;1015;49.756;6.994;2022-12-07T00:48:31;0.50;99.90
2022;DHT22;1015;49.756;6.994;2022-12-07T00:50:58;0.50;99.90
2022;DHT22;1015;49.756;6.994;2022-12-07T00:53:26;0.50;99.90
2022;DHT22;1015;49.756;6.994;2022-12-07T00:55:54;0.50;99.90
2022;DHT22;1015;49.756;6.994;2022-12-07T00:58:22;0.50;99.90
2022;DHT22;1015;49.756;6.994;2022-12-07T01:00:49;0.50;99.90
2022;DHT22;1015;49.756;6.994;2022-12-07T01:03:17;0.50;99.90
2022;DHT22;1015;49.756;6.994;2022-12-07T01:05:49;0.50;99.90
2022;DHT22;1015;49.756;6.994;2022-12-07T01:08:17;0.50;99.90
2022;DHT22;1015;49.756;6.994;2022-12-07T01:10:44;0.50;99.90
2022;DHT22;1015;49.756;6.994;2022-12-07T01:13:13;0.50;99.90
2022;DHT22;1015;49.756;6.994;2022-12-07T01:15:40;0.50;99.90
2022;DHT22;1015;49.756;6.994;2022-12-07T01:18:07;0.50;99.90
2022;DHT22;1015;49.756;6.994;2022-12-07T01:20:34;0.50;99.90
2022;DHT22;1015;49.756;6.994;2022-12-07T01:23:01;0.50;99.90
2022;DHT22;1015;49.756;6.994;2022-12-07T01:25:28;0.60;99.90
2022;DHT22;1015;49.756;6.994;2022-12-07T01:27:55;0.60;99.90
2022;DHT22;1015;49.756;6.994;2022-12-07T01:30:23;0.60;99.90
2022;DHT22;1015;49.756;6.994;2022-12-07T01:32:50;0.70;99.90
2022;DHT22;1015;49.756;6.994;2022-12-07T01:35:17;0.70;99.90
2022;DHT22;1015;49.756;6.994;2022-12-07T01:37:44;0.70;99.90
2022;DHT22;1015;49.756;6.994;2022-12-07T01:40:12;0.70;99.90
2022;DHT22;1015;49.756;6.994;2022-12-07T01:42:39;0.70;99.90
2022;DHT22;1015;49.756;6.994;2022-12-07T01:48:12;0.80;99.90
2022;DHT22;1015;49.756;6.994;2022-12-07T01:50:41;0.80;99.90
2022;DHT22;1015;49.756;6.994;2022-12-07T01:53:10;0.80;99.90
2022;DHT22;1015;49.756;6.994;2022-12-07T01:55:40;0.80;99.90
2022;DHT22;1015;49.756;6.994;2022-12-07T01:58:09;0.80;99.90
2022;DHT22;1015;49.756;6.994;2022-12-07T02:00:38;0.80;99.90
2022;DHT22;1015;49.756;6.994;2022-12-07T02:03:08;0.80;99.90
2022;DHT22;1015;49.756;6.994;2022-12-07T02:05:40;0.90;99.90
2022;DHT22;1015;49.756;6.994;2022-12-07T02:08:08;0.80;99.90
2022;DHT22;1015;49.756;6.994;2022-12-07T02:10:35;0.80;99.90
2022;DHT22;1015;49.756;6.994;2022-12-07T02:13:05;0.80;99.90
2022;DHT22;1015;49.756;6.994;2022-12-07T02:15:40;0.90;99.90
2022;DHT22;1015;49.756;6.994;2022-12-07T02:18:16;0.90;99.90
2022;DHT22;1015;49.756;6.994;2022-12-07T02:20:49;0.90;99.90
2022;DHT22;1015;49.756;6.994;2022-12-07T02:23:41;0.90;99.90
2022;DHT22;1015;49.756;6.994;2022-12-07T02:29:22;0.90;99.90
2022;DHT22;1015;49.756;6.994;2022-12-07T02:31:56;1.00;99.90
2022;DHT22;1015;49.756;6.994;2022-12-07T02:34:34;0.90;99.90
2022;DHT22;1015;49.756;6.994;2022-12-07T02:37:06;0.90;99.90
2022;DHT22;1015;49.756;6.994;2022-12-07T02:39:42;1.00;99.90
2022;DHT22;1015;49.756;6.994;2022-12-07T02:42:14;1.00;99.90
2022;DHT22;1015;49.756;6.994;2022-12-07T02:44:44;1.10;99.90
2022;DHT22;1015;49.756;6.994;2022-12-07T02:47:15;1.10;99.90
2022;DHT22;1015;49.756;6.994;2022-12-07T02:49:43;1.00;99.90
2022;DHT22;1015;49.756;6.994;2022-12-07T02:52:10;1.00;99.90
2022;DHT22;1015;49.756;6.994;2022-12-07T02:54:37;1.00;99.90
2022;DHT22;1015;49.756;6.994;2022-12-07T02:57:19;1.00;99.90
2022;DHT22;1015;49.756;6.994;2022-12-07T03:00:00;1.00;99.90
2022;DHT22;1015;49.756;6.994;2022-12-07T03:02:35;1.10;99.90
2022;DHT22;1015;49.756;6.994;2022-12-07T03:05:17;1.10;99.90
2022;DHT22;1015;49.756;6.994;2022-12-07T03:07:54;1.00;99.90
2022;DHT22;1015;49.756;6.994;2022-12-07T03:10:27;1.00;99.90
2022;DHT22;1015;49.756;6.994;2022-12-07T03:13:03;1.00;99.90
2022;DHT22;1015;49.756;6.994;2022-12-07T03:15:38;1.00;99.90
2022;DHT22;1015;49.756;6.994;2022-12-07T03:18:07;1.10;99.90
2022;DHT22;1015;49.756;6.994;2022-12-07T03:20:37;1.00;99.90
2022;DHT22;1015;49.756;6.994;2022-12-07T03:23:07;1.10;99.90
2022;DHT22;1015;49.756;6.994;2022-12-07T03:25:39;1.10;99.90
2022;DHT22;1015;49.756;6.994;2022-12-07T03:28:08;1.10;99.90
2022;DHT22;1015;49.756;6.994;2022-12-07T03:30:43;1.10;99.90
2022;DHT22;1015;49.756;6.994;2022-12-07T03:33:14;1.00;99.90
2022;DHT22;1015;49.756;6.994;2022-12-07T03:35:43;0.90;99.90
2022;DHT22;1015;49.756;6.994;2022-12-07T03:38:17;1.10;99.90
2022;DHT22;1015;49.756;6.994;2022-12-07T03:40:49;1.00;99.90
2022;DHT22;1015;49.756;6.994;2022-12-07T03:43:19;1.10;99.90
2022;DHT22;1015;49.756;6.994;2022-12-07T03:45:56;1.10;99.90
2022;DHT22;1015;49.756;6.994;2022-12-07T03:48:33;1.10;99.90
2022;DHT22;1015;49.756;6.994;2022-12-07T03:51:07;1.10;99.90
2022;DHT22;1015;49.756;6.994;2022-12-07T03:53:40;1.10;99.90
2022;DHT22;1015;49.756;6.994;2022-12-07T03:56:09;1.20;99.90
2022;DHT22;1015;49.756;6.994;2022-12-07T03:58:37;1.20;99.90
2022;DHT22;1015;49.756;6.994;2022-12-07T04:01:06;1.10;99.90
2022;DHT22;1015;49.756;6.994;2022-12-07T04:03:33;1.20;99.90
2022;DHT22;1015;49.756;6.994;2022-12-07T04:06:00;1.10;99.90
2022;DHT22;1015;49.756;6.994;2022-12-07T04:08:27;1.10;99.90
2022;DHT22;1015;49.756;6.994;2022-12-07T04:10:54;1.10;99.90
2022;DHT22;1015;49.756;6.994;2022-12-07T04:13:21;1.10;99.90
2022;DHT22;1015;49.756;6.994;2022-12-07T04:15:48;1.20;99.90
2022;DHT22;1015;49.756;6.994;2022-12-07T04:18:17;1.20;99.90
2022;DHT22;1015;49.756;6.994;2022-12-07T04:20:45;1.20;99.90
2022;DHT22;1015;49.756;6.994;2022-12-07T04:23:12;1.10;99.90
2022;DHT22;1015;49.756;6.994;2022-12-07T04:25:39;1.10;99.90
2022;DHT22;1015;49.756;6.994;2022-12-07T04:28:06;1.20;99.90
2022;DHT22;1015;49.756;6.994;2022-12-07T04:30:33;1.20;99.90
2022;DHT22;1015;49.756;6.994;2022-12-07T04:33:00;1.20;99.90
2022;DHT22;1015;49.756;6.994;2022-12-07T04:35:29;1.20;99.90
2022;DHT22;1015;49.756;6.994;2022-12-07T04:37:56;1.20;99.90
2022;DHT22;1015;49.756;6.994;2022-12-07T04:40:23;1.20;99.90
2022;DHT22;1015;49.756;6.994;2022-12-07T04:42:49;1.20;99.90
2022;DHT22;1015;49.756;6.994;2022-12-07T04:45:16;1.20;99.90
2022;DHT22;1015;49.756;6.994;2022-12-07T04:47:43;1.20;99.90
2022;DHT22;1015;49.756;6.994;2022-12-07T04:50:11;1.20;99.90
2022;DHT22;1015;49.756;6.994;2022-12-07T04:52:39;1.30;99.90
2022;DHT22;1015;49.756;6.994;2022-12-07T04:55:07;1.30;99.90
2022;DHT22;1015;49.756;6.994;2022-12-07T04:57:34;1.30;99.90
2022;DHT22;1015;49.756;6.994;2022-12-07T05:00:01;1.30;99.90
2022;DHT22;1015;49.756;6.994;2022-12-07T05:02:28;1.20;99.90
2022;DHT22;1015;49.756;6.994;2022-12-07T05:04:55;1.30;99.90
2022;DHT22;1015;49.756;6.994;2022-12-07T05:07:23;1.30;99.90
2022;DHT22;1015;49.756;6.994;2022-12-07T05:09:51;1.30;99.90
2022;DHT22;1015;49.756;6.994;2022-12-07T05:12:18;1.30;99.90
2022;DHT22;1015;49.756;6.994;2022-12-07T05:14:46;1.30;99.90
2022;DHT22;1015;49.756;6.994;2022-12-07T05:17:13;1.30;99.90
2022;DHT22;1015;49.756;6.994;2022-12-07T05:19:40;1.20;99.90
2022;DHT22;1015;49.756;6.994;2022-12-07T05:22:07;1.20;99.90
2022;DHT22;1015;49.756;6.994;2022-12-07T05:24:34;1.30;99.90
2022;DHT22;1015;49.756;6.994;2022-12-07T05:27:03;1.30;99.90
2022;DHT22;1015;49.756;6.994;2022-12-07T05:29:30;1.30;99.90
2022;DHT22;1015;49.756;6.994;2022-12-07T05:31:57;1.40;99.90
2022;DHT22;1015;49.756;6.994;2022-12-07T05:34:24;1.40;99.90
2022;DHT22;1015;49.756;6.994;2022-12-07T05:36:51;1.40;99.90
2022;DHT22;1015;49.756;6.994;2022-12-07T05:39:18;1.40;99.90
2022;DHT22;1015;49.756;6.994;2022-12-07T05:41:46;1.40;99.90
2022;DHT22;1015;49.756;6.994;2022-12-07T05:44:32;1.30;99.90
2022;DHT22;1015;49.756;6.994;2022-12-07T05:46:59;1.30;99.90
2022;DHT22;1015;49.756;6.994;2022-12-07T05:49:26;1.30;99.90
2022;DHT22;1015;49.756;6.994;2022-12-07T05:51:53;1.30;99.90
2022;DHT22;1015;49.756;6.994;2022-12-07T05:54:20;1.30;99.90
2022;DHT22;1015;49.756;6.994;2022-12-07T05:56:47;1.30;99.90
2022;DHT22;1015;49.756;6.994;2022-12-07T05:59:14;1.40;99.90
2022;DHT22;1015;49.756;6.994;2022-12-07T06:01:52;1.40;99.90
2022;DHT22;1015;49.756;6.994;2022-12-07T06:04:20;1.40;99.90
2022;DHT22;1015;49.756;6.994;2022-12-07T06:06:47;1.30;99.90
2022;DHT22;1015;49.756;6.994;2022-12-07T06:09:15;1.30;99.90
2022;DHT22;1015;49.756;6.994;2022-12-07T06:11:44;1.30;99.90
2022;DHT22;1015;49.756;6.994;2022-12-07T06:14:28;1.30;99.90
2022;DHT22;1015;49.756;6.994;2022-12-07T06:16:58;1.20;99.90
2022;DHT22;1015;49.756;6.994;2022-12-07T06:19:25;1.40;99.90
2022;DHT22;1015;49.756;6.994;2022-12-07T06:21:54;1.40;99.90
2022;DHT22;1015;49.756;6.994;2022-12-07T06:24:21;1.40;99.90
2022;DHT22;1015;49.756;6.994;2022-12-07T06:26:49;1.40;99.90
2022;DHT22;1015;49.756;6.994;2022-12-07T06:29:17;1.40;99.90
2022;DHT22;1015;49.756;6.994;2022-12-07T06:31:44;1.50;99.90
2022;DHT22;1015;49.756;6.994;2022-12-07T06:34:14;1.40;99.90
2022;DHT22;1015;49.756;6.994;2022-12-07T06:36:42;1.40;99.90
2022;DHT22;1015;49.756;6.994;2022-12-07T06:39:10;1.40;99.90
2022;DHT22;1015;49.756;6.994;2022-12-07T06:41:39;1.50;99.90
2022;DHT22;1015;49.756;6.994;2022-12-07T06:44:07;1.50;99.90
2022;DHT22;1015;49.756;6.994;2022-12-07T06:46:34;1.40;99.90
2022;DHT22;1015;49.756;6.994;2022-12-07T06:49:02;1.40;99.90
2022;DHT22;1015;49.756;6.994;2022-12-07T06:51:31;1.40;99.90
2022;DHT22;1015;49.756;6.994;2022-12-07T06:54:00;1.50;99.90
2022;DHT22;1015;49.756;6.994;2022-12-07T06:56:27;1.50;99.90
2022;DHT22;1015;49.756;6.994;2022-12-07T06:58:55;1.40;99.90
2022;DHT22;1015;49.756;6.994;2022-12-07T07:01:22;1.40;99.90
2022;DHT22;1015;49.756;6.994;2022-12-07T07:03:49;1.40;99.90
2022;DHT22;1015;49.756;6.994;2022-12-07T07:06:16;1.50;99.90
2022;DHT22;1015;49.756;6.994;2022-12-07T07:08:45;1.50;99.90
2022;DHT22;1015;49.756;6.994;2022-12-07T07:11:12;1.50;99.90
2022;DHT22;1015;49.756;6.994;2022-12-07T07:13:39;1.40;99.90
2022;DHT22;1015;49.756;6.994;2022-12-07T07:16:07;1.50;99.90
2022;DHT22;1015;49.756;6.994;2022-12-07T07:18:34;1.40;99.90
2022;DHT22;1015;49.756;6.994;2022-12-07T07:21:02;1.60;99.90
2022;DHT22;1015;49.756;6.994;2022-12-07T07:23:29;1.50;99.90
2022;DHT22;1015;49.756;6.994;2022-12-07T07:25:57;1.40;99.90
2022;DHT22;1015;49.756;6.994;2022-12-07T07:28:24;1.50;99.90
2022;DHT22;1015;49.756;6.994;2022-12-07T07:30:52;1.50;99.90
2022;DHT22;1015;49.756;6.994;2022-12-07T07:33:18;1.50;99.90
2022;DHT22;1015;49.756;6.994;2022-12-07T07:35:45;1.50;99.90
2022;DHT22;1015;49.756;6.994;2022-12-07T07:38:12;1.60;99.90
2022;DHT22;1015;49.756;6.994;2022-12-07T07:40:39;1.50;99.90
2022;DHT22;1015;49.756;6.994;2022-12-07T07:43:08;1.60;99.90
2022;DHT22;1015;49.756;6.994;2022-12-07T07:45:35;1.50;99.90
2022;DHT22;1015;49.756;6.994;2022-12-07T07:48:02;1.60;99.90
2022;DHT22;1015;49.756;6.994;2022-12-07T07:50:29;1.50;99.90
2022;DHT22;1015;49.756;6.994;2022-12-07T07:52:57;1.50;99.90
2022;DHT22;1015;49.756;6.994;2022-12-07T07:55:24;1.60;99.90
2022;DHT22;1015;49.756;6.994;2022-12-07T07:57:51;1.60;99.90
2022;DHT22;1015;49.756;6.994;2022-12-07T08:00:20;1.70;99.90
2022;DHT22;1015;49.756;6.994;2022-12-07T08:02:47;1.60;99.90
2022;DHT22;1015;49.756;6.994;2022-12-07T08:05:14;1.60;99.90
2022;DHT22;1015;49.756;6.994;2022-12-07T08:07:41;1.60;99.90
2022;DHT22;1015;49.756;6.994;2022-12-07T08:10:11;1.70;99.90
2022;DHT22;1015;49.756;6.994;2022-12-07T08:12:39;1.60;99.90
2022;DHT22;1015;49.756;6.994;2022-12-07T08:15:30;1.60;99.90
2022;DHT22;1015;49.756;6.994;2022-12-07T08:17:57;1.70;99.90
2022;DHT22;1015;49.756;6.994;2022-12-07T08:20:25;1.80;99.90
2022;DHT22;1015;49.756;6.994;2022-12-07T08:22:52;1.70;99.90
2022;DHT22;1015;49.756;6.994;2022-12-07T08:25:19;1.70;99.90
2022;DHT22;1015;49.756;6.994;2022-12-07T08:27:46;1.80;99.90
2022;DHT22;1015;49.756;6.994;2022-12-07T08:30:13;1.80;99.90
2022;DHT22;1015;49.756;6.994;2022-12-07T08:32:41;1.80;99.90
2022;DHT22;1015;49.756;6.994;2022-12-07T08:35:10;1.70;99.90
2022;DHT22;1015;49.756;6.994;2022-12-07T08:37:38;1.80;99.90
2022;DHT22;1015;49.756;6.994;2022-12-07T08:40:06;1.70;99.90
2022;DHT22;1015;49.756;6.994;2022-12-07T08:42:34;1.70;99.90
2022;DHT22;1015;49.756;6.994;2022-12-07T08:45:06;1.70;99.90
2022;DHT22;1015;49.756;6.994;2022-12-07T08:47:34;1.80;99.90
2022;DHT22;1015;49.756;6.994;2022-12-07T08:50:06;1.80;99.90
2022;DHT22;1015;49.756;6.994;2022-12-07T08:52:35;1.90;99.90
2022;DHT22;1015;49.756;6.994;2022-12-07T08:55:04;1.90;99.90
2022;DHT22;1015;49.756;6.994;2022-12-07T08:57:33;2.00;99.90
2022;DHT22;1015;49.756;6.994;2022-12-07T09:00:01;2.00;99.90
2022;DHT22;1015;49.756;6.994;2022-12-07T09:02:30;2.20;99.90
2022;DHT22;1015;49.756;6.994;2022-12-07T09:04:57;2.30;99.90
2022;DHT22;1015;49.756;6.994;2022-12-07T09:07:26;2.40;99.90
2022;DHT22;1015;49.756;6.994;2022-12-07T09:09:53;2.50;99.90
2022;DHT22;1015;49.756;6.994;2022-12-07T09:12:21;2.40;99.90
2022;DHT22;1015;49.756;6.994;2022-12-07T09:14:48;2.40;99.90
2022;DHT22;1015;49.756;6.994;2022-12-07T09:17:15;2.50;99.90
2022;DHT22;1015;49.756;6.994;2022-12-07T09:19:42;2.40;99.90
2022;DHT22;1015;49.756;6.994;2022-12-07T09:22:09;2.50;99.90
2022;DHT22;1015;49.756;6.994;2022-12-07T09:24:37;2.50;99.90
2022;DHT22;1015;49.756;6.994;2022-12-07T09:27:04;2.40;99.90
2022;DHT22;1015;49.756;6.994;2022-12-07T09:29:31;2.40;99.90
2022;DHT22;1015;49.756;6.994;2022-12-07T09:31:58;2.40;99.90
2022;DHT22;1015;49.756;6.994;2022-12-07T09:34:25;2.50;99.90
2022;DHT22;1015;49.756;6.994;2022-12-07T09:36:53;2.40;99.90
2022;DHT22;1015;49.756;6.994;2022-12-07T09:39:20;2.10;99.90
2022;DHT22;1015;49.756;6.994;2022-12-07T09:41:48;2.20;99.90
2022;DHT22;1015;49.756;6.994;2022-12-07T09:44:21;2.30;99.90
2022;DHT22;1015;49.756;6.994;2022-12-07T09:46:49;2.30;99.90
2022;DHT22;1015;49.756;6.994;2022-12-07T09:49:20;2.00;99.90
2022;DHT22;1015;49.756;6.994;2022-12-07T09:51:58;2.00;99.90
2022;DHT22;1015;49.756;6.994;2022-12-07T09:54:25;2.00;99.90
2022;DHT22;1015;49.756;6.994;2022-12-07T09:56:54;1.80;99.90
2022;DHT22;1015;49.756;6.994;2022-12-07T09:59:21;2.00;99.90
2022;DHT22;1015;49.756;6.994;2022-12-07T10:01:49;2.00;99.90
2022;DHT22;1015;49.756;6.994;2022-12-07T10:04:19;2.00;99.90
2022;DHT22;1015;49.756;6.994;2022-12-07T10:06:47;2.10;99.90
2022;DHT22;1015;49.756;6.994;2022-12-07T10:09:17;2.30;99.90
2022;DHT22;1015;49.756;6.994;2022-12-07T10:12:14;2.20;99.90
2022;DHT22;1015;49.756;6.994;2022-12-07T10:14:54;2.30;99.90
2022;DHT22;1015;49.756;6.994;2022-12-07T10:17:34;2.30;99.90
2022;DHT22;1015;49.756;6.994;2022-12-07T10:20:18;2.20;99.90
2022;DHT22;1015;49.756;6.994;2022-12-07T10:22:57;2.20;99.90
2022;DHT22;1015;49.756;6.994;2022-12-07T10:25:27;2.20;99.90
2022;DHT22;1015;49.756;6.994;2022-12-07T10:28:00;2.40;99.90
2022;DHT22;1015;49.756;6.994;2022-12-07T10:30:28;2.40;99.90
2022;DHT22;1015;49.756;6.994;2022-12-07T10:32:56;2.30;99.90
2022;DHT22;1015;49.756;6.994;2022-12-07T10:35:25;2.20;99.90
2022;DHT22;1015;49.756;6.994;2022-12-07T10:37:54;2.40;99.90
2022;DHT22;1015;49.756;6.994;2022-12-07T10:40:29;2.50;99.90
2022;DHT22;1015;49.756;6.994;2022-12-07T10:43:12;2.20;99.90
2022;DHT22;1015;49.756;6.994;2022-12-07T10:48:45;2.50;99.90
2022;DHT22;1015;49.756;6.994;2022-12-07T10:51:19;2.60;99.90
2022;DHT22;1015;49.756;6.994;2022-12-07T10:53:58;2.80;99.90
2022;DHT22;1015;49.756;6.994;2022-12-07T10:56:43;2.90;99.90
2022;DHT22;1015;49.756;6.994;2022-12-07T11:05:23;3.40;99.90
2022;DHT22;1015;49.756;6.994;2022-12-07T11:08:01;3.50;99.90
2022;DHT22;1015;49.756;6.994;2022-12-07T11:10:39;3.50;99.90
2022;DHT22;1015;49.756;6.994;2022-12-07T11:13:19;3.30;99.90
2022;DHT22;1015;49.756;6.994;2022-12-07T11:16:00;3.20;99.90
2022;DHT22;1015;49.756;6.994;2022-12-07T11:18:32;3.10;99.90
2022;DHT22;1015;49.756;6.994;2022-12-07T11:21:07;3.20;99.90
2022;DHT22;1015;49.756;6.994;2022-12-07T11:23:46;2.70;99.90
2022;DHT22;1015;49.756;6.994;2022-12-07T11:26:23;2.60;99.90
2022;DHT22;1015;49.756;6.994;2022-12-07T11:29:13;2.70;99.90
2022;DHT22;1015;49.756;6.994;2022-12-07T11:31:53;2.70;99.90
2022;DHT22;1015;49.756;6.994;2022-12-07T11:34:29;2.80;99.90
2022;DHT22;1015;49.756;6.994;2022-12-07T11:37:02;2.60;99.90
2022;DHT22;1015;49.756;6.994;2022-12-07T11:39:34;2.50;99.90
2022;DHT22;1015;49.756;6.994;2022-12-07T11:42:06;2.50;99.90
2022;DHT22;1015;49.756;6.994;2022-12-07T11:44:37;2.30;99.90
2022;DHT22;1015;49.756;6.994;2022-12-07T11:47:10;2.30;99.90
2022;DHT22;1015;49.756;6.994;2022-12-07T11:49:43;2.40;99.90
2022;DHT22;1015;49.756;6.994;2022-12-07T11:52:18;2.40;99.90
2022;DHT22;1015;49.756;6.994;2022-12-07T11:54:50;2.60;99.90
2022;DHT22;1015;49.756;6.994;2022-12-07T11:57:22;2.70;99.90
2022;DHT22;1015;49.756;6.994;2022-12-07T11:59:54;2.80;99.90
2022;DHT22;1015;49.756;6.994;2022-12-07T12:02:28;2.90;99.90
2022;DHT22;1015;49.756;6.994;2022-12-07T12:05:05;2.90;99.90
2022;DHT22;1015;49.756;6.994;2022-12-07T12:07:34;3.00;99.90
2022;DHT22;1015;49.756;6.994;2022-12-07T12:10:07;2.90;99.90
2022;DHT22;1015;49.756;6.994;2022-12-07T12:13:00;3.00;99.90
2022;DHT22;1015;49.756;6.994;2022-12-07T12:15:43;3.10;99.90
2022;DHT22;1015;49.756;6.994;2022-12-07T12:18:31;3.30;99.90
2022;DHT22;1015;49.756;6.994;2022-12-07T12:21:07;3.40;99.90
2022;DHT22;1015;49.756;6.994;2022-12-07T12:23:38;3.40;99.90
2022;DHT22;1015;49.756;6.994;2022-12-07T12:26:13;3.40;99.90
2022;DHT22;1015;49.756;6.994;2022-12-07T12:28:50;3.30;99.90
2022;DHT22;1015;49.756;6.994;2022-12-07T12:31:33;3.30;99.90
2022;DHT22;1015;49.756;6.994;2022-12-07T12:34:30;3.30;99.90
2022;DHT22;1015;49.756;6.994;2022-12-07T12:36:58;3.20;99.90
2022;DHT22;1015;49.756;6.994;2022-12-07T12:39:26;3.00;99.90
2022;DHT22;1015;49.756;6.994;2022-12-07T12:41:55;3.10;99.90
2022;DHT22;1015;49.756;6.994;2022-12-07T12:50:26;3.10;99.90
2022;DHT22;1015;49.756;6.994;2022-12-07T12:53:20;3.00;99.90
2022;DHT22;1015;49.756;6.994;2022-12-07T12:56:11;2.90;99.90
2022;DHT22;1015;49.756;6.994;2022-12-07T12:58:44;2.80;99.90
2022;DHT22;1015;49.756;6.994;2022-12-07T13:01:42;2.80;99.90
2022;DHT22;1015;49.756;6.994;2022-12-07T13:04:39;3.00;99.90
2022;DHT22;1015;49.756;6.994;2022-12-07T13:07:50;3.20;99.90
2022;DHT22;1015;49.756;6.994;2022-12-07T13:13:29;3.10;99.90
2022;DHT22;1015;49.756;6.994;2022-12-07T13:25:36;3.00;99.90
2022;DHT22;1015;49.756;6.994;2022-12-07T13:28:16;3.00;99.90
2022;DHT22;1015;49.756;6.994;2022-12-07T13:30:49;3.00;99.90
2022;DHT22;1015;49.756;6.994;2022-12-07T13:33:17;3.10;99.90
2022;DHT22;1015;49.756;6.994;2022-12-07T13:35:45;3.10;99.90
2022;DHT22;1015;49.756;6.994;2022-12-07T13:38:22;3.00;99.90
2022;DHT22;1015;49.756;6.994;2022-12-07T13:41:11;3.00;99.90
2022;DHT22;1015;49.756;6.994;2022-12-07T13:43:47;3.00;99.90
2022;DHT22;1015;49.756;6.994;2022-12-07T13:46:14;3.00;99.90
2022;DHT22;1015;49.756;6.994;2022-12-07T13:48:45;3.10;99.90
2022;DHT22;1015;49.756;6.994;2022-12-07T13:51:21;3.10;99.90
2022;DHT22;1015;49.756;6.994;2022-12-07T13:53:52;3.10;99.90
2022;DHT22;1015;49.756;6.994;2022-12-07T13:56:26;3.10;99.90
2022;DHT22;1015;49.756;6.994;2022-12-07T13:58:55;3.00;99.90
2022;DHT22;1015;49.756;6.994;2022-12-07T14:01:22;3.00;99.90
2022;DHT22;1015;49.756;6.994;2022-12-07T14:03:49;3.00;99.90
2022;DHT22;1015;49.756;6.994;2022-12-07T14:06:24;3.10;99.90
2022;DHT22;1015;49.756;6.994;2022-12-07T14:09:08;3.00;99.90
2022;DHT22;1015;49.756;6.994;2022-12-07T14:11:37;3.10;99.90
2022;DHT22;1015;49.756;6.994;2022-12-07T14:14:05;3.10;99.90
2022;DHT22;1015;49.756;6.994;2022-12-07T14:16:33;3.20;99.90
2022;DHT22;1015;49.756;6.994;2022-12-07T14:19:03;2.90;99.90
2022;DHT22;1015;49.756;6.994;2022-12-07T14:21:31;3.00;99.90
2022;DHT22;1015;49.756;6.994;2022-12-07T14:24:19;3.00;99.90
2022;DHT22;1015;49.756;6.994;2022-12-07T14:26:49;3.10;99.90
2022;DHT22;1015;49.756;6.994;2022-12-07T14:29:30;3.10;99.90
2022;DHT22;1015;49.756;6.994;2022-12-07T14:32:01;3.00;99.90
2022;DHT22;1015;49.756;6.994;2022-12-07T14:34:40;2.90;99.90
2022;DHT22;1015;49.756;6.994;2022-12-07T14:37:08;3.00;99.90
2022;DHT22;1015;49.756;6.994;2022-12-07T14:39:36;3.00;99.90
2022;DHT22;1015;49.756;6.994;2022-12-07T14:42:04;3.10;99.90
2022;DHT22;1015;49.756;6.994;2022-12-07T14:44:31;3.10;99.90
2022;DHT22;1015;49.756;6.994;2022-12-07T14:46:58;3.20;99.90
2022;DHT22;1015;49.756;6.994;2022-12-07T14:49:25;3.00;99.90
2022;DHT22;1015;49.756;6.994;2022-12-07T14:51:52;2.90;99.90
2022;DHT22;1015;49.756;6.994;2022-12-07T14:54:20;2.70;99.90
2022;DHT22;1015;49.756;6.994;2022-12-07T14:56:48;2.80;99.90
2022;DHT22;1015;49.756;6.994;2022-12-07T14:59:18;2.90;99.90
2022;DHT22;1015;49.756;6.994;2022-12-07T15:01:45;2.90;99.90
2022;DHT22;1015;49.756;6.994;2022-12-07T15:04:12;2.80;99.90
2022;DHT22;1015;49.756;6.994;2022-12-07T15:06:39;2.70;99.90
2022;DHT22;1015;49.756;6.994;2022-12-07T15:09:10;2.70;99.90
2022;DHT22;1015;49.756;6.994;2022-12-07T15:11:37;2.60;99.90
2022;DHT22;1015;49.756;6.994;2022-12-07T15:14:04;2.60;99.90
2022;DHT22;1015;49.756;6.994;2022-12-07T15:16:41;2.60;99.90
2022;DHT22;1015;49.756;6.994;2022-12-07T15:19:16;2.60;99.90
2022;DHT22;1015;49.756;6.994;2022-12-07T15:21:44;2.50;99.90
2022;DHT22;1015;49.756;6.994;2022-12-07T15:24:11;2.40;99.90
2022;DHT22;1015;49.756;6.994;2022-12-07T15:26:39;2.30;99.90
2022;DHT22;1015;49.756;6.994;2022-12-07T15:29:07;2.30;99.90
2022;DHT22;1015;49.756;6.994;2022-12-07T15:31:35;2.40;99.90
2022;DHT22;1015;49.756;6.994;2022-12-07T15:34:03;2.30;99.90
2022;DHT22;1015;49.756;6.994;2022-12-07T15:36:32;2.30;99.90
2022;DHT22;1015;49.756;6.994;2022-12-07T15:38:59;2.30;99.90
2022;DHT22;1015;49.756;6.994;2022-12-07T15:41:26;2.30;99.90
2022;DHT22;1015;49.756;6.994;2022-12-07T15:43:53;2.20;99.90
2022;DHT22;1015;49.756;6.994;2022-12-07T15:46:39;2.10;99.90
2022;DHT22;1015;49.756;6.994;2022-12-07T15:49:13;2.20;99.90
2022;DHT22;1015;49.756;6.994;2022-12-07T15:51:40;2.20;99.90
2022;DHT22;1015;49.756;6.994;2022-12-07T15:54:11;2.20;99.90
2022;DHT22;1015;49.756;6.994;2022-12-07T15:56:38;2.20;99.90
2022;DHT22;1015;49.756;6.994;2022-12-07T15:59:05;2.20;99.90
2022;DHT22;1015;49.756;6.994;2022-12-07T16:01:32;2.20;99.90
2022;DHT22;1015;49.756;6.994;2022-12-07T16:03:59;2.10;99.90
2022;DHT22;1015;49.756;6.994;2022-12-07T16:06:27;2.10;99.90
2022;DHT22;1015;49.756;6.994;2022-12-07T16:08:54;2.10;99.90
2022;DHT22;1015;49.756;6.994;2022-12-07T16:11:21;2.10;99.90
2022;DHT22;1015;49.756;6.994;2022-12-07T16:13:49;2.10;99.90
2022;DHT22;1015;49.756;6.994;2022-12-07T16:16:17;2.00;99.90
2022;DHT22;1015;49.756;6.994;2022-12-07T16:18:46;2.00;99.90
2022;DHT22;1015;49.756;6.994;2022-12-07T16:21:13;1.90;99.90
2022;DHT22;1015;49.756;6.994;2022-12-07T16:23:42;1.90;99.90
2022;DHT22;1015;49.756;6.994;2022-12-07T16:26:12;1.90;99.90
2022;DHT22;1015;49.756;6.994;2022-12-07T16:28:39;1.90;99.90
2022;DHT22;1015;49.756;6.994;2022-12-07T16:31:09;1.80;99.90
2022;DHT22;1015;49.756;6.994;2022-12-07T16:33:37;1.80;99.90
2022;DHT22;1015;49.756;6.994;2022-12-07T16:36:06;1.80;99.90
2022;DHT22;1015;49.756;6.994;2022-12-07T16:38:34;1.70;99.90
2022;DHT22;1015;49.756;6.994;2022-12-07T16:41:03;1.70;99.90
2022;DHT22;1015;49.756;6.994;2022-12-07T16:43:31;1.70;99.90
2022;DHT22;1015;49.756;6.994;2022-12-07T16:45:58;1.70;99.90
2022;DHT22;1015;49.756;6.994;2022-12-07T16:48:25;1.60;99.90
2022;DHT22;1015;49.756;6.994;2022-12-07T16:50:52;1.70;99.90
2022;DHT22;1015;49.756;6.994;2022-12-07T16:53:20;1.70;99.90
2022;DHT22;1015;49.756;6.994;2022-12-07T16:55:49;1.80;99.90
2022;DHT22;1015;49.756;6.994;2022-12-07T16:58:17;1.80;99.90
2022;DHT22;1015;49.756;6.994;2022-12-07T17:00:45;1.80;99.90
2022;DHT22;1015;49.756;6.994;2022-12-07T17:03:12;1.70;99.90
2022;DHT22;1015;49.756;6.994;2022-12-07T17:05:40;1.70;99.90
2022;DHT22;1015;49.756;6.994;2022-12-07T17:08:07;1.70;99.90
2022;DHT22;1015;49.756;6.994;2022-12-07T17:10:37;1.70;99.90
2022;DHT22;1015;49.756;6.994;2022-12-07T17:13:06;1.60;99.90